N24EB KHEF-KCHO
Flight info
| Callsign | N24EB |
|---|---|
| Flight time | 0h 45m |
| Altitude | 4000 |
| Route | ARSNL5 WITTO |
| Aircraft | DA40/L-SBG/C |
Departure
| Time | 2026-04-21 00:13 |
|---|---|
| Airport | Manassas Regional Airport/Harry P. Davis Field (KHEF) |
Arrival
| Time | 2026-04-21 00:58 |
|---|---|
| Airport | Charlottesville Albemarle Airport (KCHO) |
| Time | Latitude | Longitude | Altitude | Speed | Heading |
|---|---|---|---|---|---|
| 2026-04-21 00:01 | 38.72039 | -77.51051 | 196 ft | 0 kts | 122° |
| 2026-04-21 00:09 | 38.71989 | -77.51071 | 195 ft | 15 kts | 158° |
| 2026-04-21 00:09 | 38.71917 | -77.51052 | 195 ft | 19 kts | 210° |
| 2026-04-21 00:09 | 38.71742 | -77.50977 | 195 ft | 23 kts | 150° |
| 2026-04-21 00:09 | 38.71645 | -77.50907 | 195 ft | 25 kts | 150° |
| 2026-04-21 00:10 | 38.71487 | -77.50794 | 195 ft | 27 kts | 151° |
| 2026-04-21 00:10 | 38.71355 | -77.50709 | 195 ft | 8 kts | 189° |
| 2026-04-21 00:10 | 38.71334 | -77.50727 | 194 ft | 0 kts | 225° |
| 2026-04-21 00:12 | 38.71301 | -77.50821 | 195 ft | 18 kts | 271° |
| 2026-04-21 00:12 | 38.71339 | -77.50851 | 189 ft | 9 kts | 336° |
| 2026-04-21 00:12 | 38.71480 | -77.50949 | 196 ft | 52 kts | 332° |
| 2026-04-21 00:12 | 38.71937 | -77.51268 | 276 ft | 87 kts | 329° |
| 2026-04-21 00:13 | 38.72471 | -77.51674 | 513 ft | 92 kts | 329° |
| 2026-04-21 00:13 | 38.73052 | -77.52055 | 748 ft | 95 kts | 330° |
| 2026-04-21 00:13 | 38.73645 | -77.52459 | 992 ft | 97 kts | 327° |
| 2026-04-21 00:13 | 38.74216 | -77.52931 | 1238 ft | 98 kts | 322° |
| 2026-04-21 00:14 | 38.74759 | -77.53461 | 1490 ft | 98 kts | 317° |
| 2026-04-21 00:14 | 38.75266 | -77.54047 | 1741 ft | 98 kts | 313° |
| 2026-04-21 00:14 | 38.75738 | -77.54688 | 1980 ft | 101 kts | 309° |
| 2026-04-21 00:14 | 38.76214 | -77.55456 | 2006 ft | 118 kts | 304° |
| 2026-04-21 00:15 | 38.76679 | -77.56373 | 2012 ft | 127 kts | 298° |
| 2026-04-21 00:15 | 38.76952 | -77.57442 | 2012 ft | 130 kts | 265° |
| 2026-04-21 00:15 | 38.76581 | -77.58490 | 2011 ft | 132 kts | 235° |
| 2026-04-21 00:15 | 38.76038 | -77.59442 | 2009 ft | 133 kts | 236° |
| 2026-04-21 00:16 | 38.75525 | -77.60397 | 2085 ft | 127 kts | 237° |
| 2026-04-21 00:16 | 38.75047 | -77.61289 | 2329 ft | 117 kts | 237° |
| 2026-04-21 00:16 | 38.74602 | -77.62124 | 2568 ft | 111 kts | 237° |
| 2026-04-21 00:16 | 38.74172 | -77.62930 | 2812 ft | 108 kts | 237° |
| 2026-04-21 00:17 | 38.73754 | -77.63715 | 3051 ft | 106 kts | 237° |
| 2026-04-21 00:17 | 38.73342 | -77.64490 | 3295 ft | 105 kts | 237° |
| 2026-04-21 00:17 | 38.72933 | -77.65257 | 3541 ft | 104 kts | 237° |
| 2026-04-21 00:17 | 38.72526 | -77.66023 | 3791 ft | 104 kts | 237° |
| 2026-04-21 00:18 | 38.72115 | -77.66792 | 3988 ft | 108 kts | 237° |
| 2026-04-21 00:18 | 38.71659 | -77.67654 | 4004 ft | 124 kts | 237° |
| 2026-04-21 00:18 | 38.71157 | -77.68596 | 4016 ft | 131 kts | 237° |
| 2026-04-21 00:18 | 38.70635 | -77.69575 | 4011 ft | 134 kts | 237° |
| 2026-04-21 00:19 | 38.70118 | -77.70543 | 4011 ft | 133 kts | 237° |
| 2026-04-21 00:19 | 38.69592 | -77.71529 | 4014 ft | 132 kts | 237° |
| 2026-04-21 00:19 | 38.69073 | -77.72501 | 4012 ft | 132 kts | 237° |
| 2026-04-21 00:19 | 38.68555 | -77.73471 | 4013 ft | 132 kts | 237° |
| 2026-04-21 00:20 | 38.68037 | -77.74442 | 4013 ft | 132 kts | 237° |
| 2026-04-21 00:20 | 38.67518 | -77.75411 | 4013 ft | 132 kts | 237° |
| 2026-04-21 00:20 | 38.67001 | -77.76380 | 4007 ft | 132 kts | 237° |
| 2026-04-21 00:20 | 38.66483 | -77.77349 | 4011 ft | 132 kts | 237° |
| 2026-04-21 00:21 | 38.65966 | -77.78316 | 4013 ft | 132 kts | 237° |
| 2026-04-21 00:21 | 38.65454 | -77.79274 | 4006 ft | 132 kts | 237° |
| 2026-04-21 00:21 | 38.64937 | -77.80241 | 4007 ft | 132 kts | 237° |
| 2026-04-21 00:21 | 38.64418 | -77.81211 | 4008 ft | 132 kts | 237° |
| 2026-04-21 00:22 | 38.63899 | -77.82179 | 4013 ft | 132 kts | 237° |
| 2026-04-21 00:22 | 38.63381 | -77.83148 | 4006 ft | 132 kts | 237° |
| 2026-04-21 00:22 | 38.62861 | -77.84119 | 4009 ft | 132 kts | 237° |
| 2026-04-21 00:22 | 38.62341 | -77.85090 | 4007 ft | 132 kts | 237° |
| 2026-04-21 00:23 | 38.61820 | -77.86062 | 4006 ft | 133 kts | 237° |
| 2026-04-21 00:23 | 38.61300 | -77.87032 | 4013 ft | 132 kts | 237° |
| 2026-04-21 00:23 | 38.60781 | -77.87999 | 4012 ft | 132 kts | 237° |
| 2026-04-21 00:23 | 38.60263 | -77.88966 | 4013 ft | 132 kts | 237° |
| 2026-04-21 00:24 | 38.59744 | -77.89934 | 4011 ft | 132 kts | 237° |
| 2026-04-21 00:24 | 38.59224 | -77.90903 | 4012 ft | 132 kts | 237° |
| 2026-04-21 00:24 | 38.58704 | -77.91871 | 4007 ft | 132 kts | 237° |
| 2026-04-21 00:24 | 38.58185 | -77.92837 | 4007 ft | 132 kts | 237° |
| 2026-04-21 00:25 | 38.57674 | -77.93791 | 4009 ft | 132 kts | 237° |
| 2026-04-21 00:25 | 38.57155 | -77.94756 | 4010 ft | 132 kts | 237° |
| 2026-04-21 00:25 | 38.56636 | -77.95721 | 4007 ft | 132 kts | 237° |
| 2026-04-21 00:25 | 38.56117 | -77.96687 | 4011 ft | 132 kts | 237° |
| 2026-04-21 00:26 | 38.55598 | -77.97652 | 4012 ft | 132 kts | 237° |
| 2026-04-21 00:26 | 38.55079 | -77.98616 | 4013 ft | 132 kts | 237° |
| 2026-04-21 00:26 | 38.54560 | -77.99582 | 4013 ft | 132 kts | 237° |
| 2026-04-21 00:26 | 38.54040 | -78.00548 | 4013 ft | 132 kts | 237° |
| 2026-04-21 00:27 | 38.53520 | -78.01514 | 4013 ft | 132 kts | 237° |
| 2026-04-21 00:27 | 38.52999 | -78.02481 | 4007 ft | 132 kts | 237° |
| 2026-04-21 00:27 | 38.52478 | -78.03447 | 4009 ft | 132 kts | 237° |
| 2026-04-21 00:27 | 38.51959 | -78.04412 | 4010 ft | 132 kts | 237° |
| 2026-04-21 00:28 | 38.51439 | -78.05377 | 4011 ft | 132 kts | 237° |
| 2026-04-21 00:28 | 38.50918 | -78.06340 | 3988 ft | 134 kts | 237° |
| 2026-04-21 00:28 | 38.50382 | -78.07337 | 3892 ft | 138 kts | 237° |
| 2026-04-21 00:28 | 38.49728 | -78.08233 | 3792 ft | 140 kts | 215° |
| 2026-04-21 00:29 | 38.48889 | -78.08880 | 3694 ft | 141 kts | 213° |
| 2026-04-21 00:29 | 38.48065 | -78.09561 | 3597 ft | 141 kts | 215° |
| 2026-04-21 00:29 | 38.47246 | -78.10256 | 3500 ft | 141 kts | 216° |
| 2026-04-21 00:29 | 38.46428 | -78.10952 | 3408 ft | 140 kts | 216° |
| 2026-04-21 00:30 | 38.45632 | -78.11631 | 3405 ft | 136 kts | 216° |
| 2026-04-21 00:30 | 38.44863 | -78.12287 | 3402 ft | 133 kts | 216° |
| 2026-04-21 00:30 | 38.44094 | -78.12943 | 3400 ft | 132 kts | 216° |
| 2026-04-21 00:30 | 38.43331 | -78.13594 | 3398 ft | 132 kts | 216° |
| 2026-04-21 00:31 | 38.42567 | -78.14245 | 3397 ft | 132 kts | 216° |
| 2026-04-21 00:31 | 38.41806 | -78.14894 | 3394 ft | 131 kts | 215° |
| 2026-04-21 00:31 | 38.41046 | -78.15542 | 3397 ft | 132 kts | 216° |
| 2026-04-21 00:31 | 38.40282 | -78.16193 | 3397 ft | 133 kts | 216° |
| 2026-04-21 00:32 | 38.39516 | -78.16845 | 3396 ft | 132 kts | 216° |
| 2026-04-21 00:32 | 38.38752 | -78.17495 | 3396 ft | 132 kts | 216° |
| 2026-04-21 00:32 | 38.37990 | -78.18144 | 3396 ft | 132 kts | 216° |
| 2026-04-21 00:32 | 38.37227 | -78.18793 | 3396 ft | 132 kts | 215° |
| 2026-04-21 00:33 | 38.36464 | -78.19442 | 3396 ft | 132 kts | 216° |
| 2026-04-21 00:33 | 38.35702 | -78.20090 | 3396 ft | 132 kts | 216° |
| 2026-04-21 00:33 | 38.34941 | -78.20737 | 3396 ft | 132 kts | 216° |
| 2026-04-21 00:33 | 38.34179 | -78.21385 | 3396 ft | 132 kts | 216° |
| 2026-04-21 00:34 | 38.33425 | -78.22026 | 3396 ft | 132 kts | 216° |
| 2026-04-21 00:34 | 38.32663 | -78.22673 | 3395 ft | 131 kts | 216° |
| 2026-04-21 00:34 | 38.31904 | -78.23319 | 3395 ft | 131 kts | 216° |
| 2026-04-21 00:34 | 38.31135 | -78.23971 | 3321 ft | 136 kts | 216° |
| 2026-04-21 00:35 | 38.30335 | -78.24651 | 3200 ft | 140 kts | 215° |
| 2026-04-21 00:35 | 38.29520 | -78.25342 | 3105 ft | 139 kts | 215° |
| 2026-04-21 00:35 | 38.28728 | -78.26013 | 3102 ft | 135 kts | 215° |
| 2026-04-21 00:35 | 38.27956 | -78.26668 | 3101 ft | 132 kts | 216° |
| 2026-04-21 00:36 | 38.27191 | -78.27317 | 3098 ft | 132 kts | 216° |
| 2026-04-21 00:36 | 38.26430 | -78.27962 | 3097 ft | 131 kts | 216° |
| 2026-04-21 00:36 | 38.25681 | -78.28597 | 3096 ft | 131 kts | 216° |
| 2026-04-21 00:36 | 38.24922 | -78.29241 | 3095 ft | 131 kts | 216° |
| 2026-04-21 00:37 | 38.24162 | -78.29885 | 3095 ft | 131 kts | 216° |
| 2026-04-21 00:37 | 38.23404 | -78.30527 | 3096 ft | 131 kts | 216° |
| 2026-04-21 00:37 | 38.22646 | -78.31169 | 3095 ft | 131 kts | 216° |
| 2026-04-21 00:37 | 38.21889 | -78.31809 | 3095 ft | 131 kts | 216° |
| 2026-04-21 00:38 | 38.21131 | -78.32451 | 3095 ft | 131 kts | 216° |
| 2026-04-21 00:38 | 38.20373 | -78.33092 | 3095 ft | 131 kts | 216° |
| 2026-04-21 00:38 | 38.19617 | -78.33732 | 3094 ft | 131 kts | 215° |
| 2026-04-21 00:38 | 38.18859 | -78.34373 | 3095 ft | 131 kts | 216° |
| 2026-04-21 00:39 | 38.18099 | -78.35016 | 3095 ft | 131 kts | 215° |
| 2026-04-21 00:39 | 38.17337 | -78.35659 | 3096 ft | 132 kts | 216° |
| 2026-04-21 00:39 | 38.16574 | -78.36304 | 3095 ft | 131 kts | 215° |
| 2026-04-21 00:39 | 38.15816 | -78.36945 | 3095 ft | 131 kts | 216° |
| 2026-04-21 00:40 | 38.15060 | -78.37584 | 3095 ft | 131 kts | 216° |
| 2026-04-21 00:40 | 38.14301 | -78.38225 | 3095 ft | 131 kts | 216° |
| 2026-04-21 00:40 | 38.13540 | -78.38866 | 3095 ft | 131 kts | 216° |
| 2026-04-21 00:40 | 38.12783 | -78.39506 | 3095 ft | 131 kts | 215° |
| 2026-04-21 00:41 | 38.12033 | -78.40139 | 3095 ft | 131 kts | 215° |
| 2026-04-21 00:41 | 38.11273 | -78.40780 | 3094 ft | 131 kts | 215° |
| 2026-04-21 00:41 | 38.10514 | -78.41419 | 3095 ft | 131 kts | 216° |
| 2026-04-21 00:41 | 38.09756 | -78.42058 | 3095 ft | 131 kts | 216° |
| 2026-04-21 00:42 | 38.08999 | -78.42697 | 3094 ft | 131 kts | 216° |
| 2026-04-21 00:42 | 38.08241 | -78.43336 | 3094 ft | 131 kts | 215° |
| 2026-04-21 00:42 | 38.07483 | -78.43975 | 3094 ft | 131 kts | 215° |
| 2026-04-21 00:42 | 38.06725 | -78.44613 | 3094 ft | 131 kts | 215° |
| 2026-04-21 00:43 | 38.05966 | -78.45252 | 3094 ft | 131 kts | 215° |
| 2026-04-21 00:43 | 38.05202 | -78.45895 | 3094 ft | 131 kts | 215° |
| 2026-04-21 00:43 | 38.04443 | -78.46534 | 3094 ft | 131 kts | 215° |
| 2026-04-21 00:43 | 38.03685 | -78.47171 | 3094 ft | 131 kts | 215° |
| 2026-04-21 00:44 | 38.02928 | -78.47808 | 3094 ft | 131 kts | 215° |
| 2026-04-21 00:44 | 38.02171 | -78.48445 | 3095 ft | 131 kts | 215° |
| 2026-04-21 00:44 | 38.01411 | -78.49084 | 3094 ft | 131 kts | 215° |
| 2026-04-21 00:45 | 37.99891 | -78.50362 | 3095 ft | 131 kts | 215° |
| 2026-04-21 00:45 | 37.99139 | -78.50994 | 3095 ft | 131 kts | 215° |
| 2026-04-21 00:45 | 37.98378 | -78.51632 | 3095 ft | 131 kts | 215° |
| 2026-04-21 00:45 | 37.97619 | -78.52270 | 3095 ft | 131 kts | 215° |
| 2026-04-21 00:46 | 37.96859 | -78.52908 | 3095 ft | 131 kts | 215° |
| 2026-04-21 00:46 | 37.96098 | -78.53547 | 3096 ft | 131 kts | 215° |
| 2026-04-21 00:46 | 37.95337 | -78.54185 | 3095 ft | 131 kts | 215° |
| 2026-04-21 00:46 | 37.94576 | -78.54824 | 3095 ft | 131 kts | 215° |
| 2026-04-21 00:47 | 37.93815 | -78.55462 | 3095 ft | 131 kts | 215° |
| 2026-04-21 00:47 | 37.93027 | -78.56048 | 3094 ft | 132 kts | 205° |
| 2026-04-21 00:47 | 37.92172 | -78.56469 | 3094 ft | 132 kts | 204° |
| 2026-04-21 00:47 | 37.91320 | -78.56902 | 3094 ft | 132 kts | 204° |
| 2026-04-21 00:48 | 37.90471 | -78.57337 | 3094 ft | 131 kts | 204° |
| 2026-04-21 00:48 | 37.89601 | -78.57687 | 3092 ft | 133 kts | 185° |
| 2026-04-21 00:48 | 37.88732 | -78.57299 | 3088 ft | 138 kts | 142° |
| 2026-04-21 00:48 | 37.88272 | -78.56257 | 3091 ft | 139 kts | 98° |
| 2026-04-21 00:49 | 37.88480 | -78.55092 | 3088 ft | 138 kts | 55° |
| 2026-04-21 00:49 | 37.89236 | -78.54408 | 3089 ft | 135 kts | 12° |
| 2026-04-21 00:49 | 37.90140 | -78.54511 | 3089 ft | 131 kts | 335° |
| 2026-04-21 00:49 | 37.90975 | -78.54973 | 3092 ft | 131 kts | 335° |
| 2026-04-21 00:50 | 37.91805 | -78.55412 | 3095 ft | 131 kts | 335° |
| 2026-04-21 00:50 | 37.92651 | -78.55846 | 3091 ft | 132 kts | 341° |
| 2026-04-21 00:50 | 37.93556 | -78.55730 | 3092 ft | 135 kts | 20° |
| 2026-04-21 00:50 | 37.94423 | -78.55261 | 3093 ft | 136 kts | 20° |
| 2026-04-21 00:51 | 37.95301 | -78.54823 | 3095 ft | 136 kts | 19° |
| 2026-04-21 00:51 | 37.96178 | -78.54381 | 3095 ft | 136 kts | 20° |
| 2026-04-21 00:51 | 37.97040 | -78.53935 | 2933 ft | 127 kts | 20° |
| 2026-04-21 00:51 | 37.97805 | -78.53538 | 2746 ft | 112 kts | 19° |
| 2026-04-21 00:52 | 37.98499 | -78.53185 | 2553 ft | 104 kts | 19° |
| 2026-04-21 00:52 | 37.99118 | -78.52865 | 2523 ft | 86 kts | 18° |
| 2026-04-21 00:52 | 37.99737 | -78.52558 | 2537 ft | 108 kts | 19° |
| 2026-04-21 00:52 | 38.00475 | -78.52172 | 2549 ft | 120 kts | 19° |
| 2026-04-21 00:53 | 38.01273 | -78.51763 | 2549 ft | 125 kts | 20° |
| 2026-04-21 00:53 | 38.02082 | -78.51346 | 2548 ft | 125 kts | 20° |
| 2026-04-21 00:53 | 38.02892 | -78.50929 | 2547 ft | 126 kts | 20° |
| 2026-04-21 00:53 | 38.03705 | -78.50510 | 2547 ft | 126 kts | 20° |
| 2026-04-21 00:54 | 38.04517 | -78.50091 | 2448 ft | 121 kts | 20° |
| 2026-04-21 00:54 | 38.05259 | -78.49714 | 2303 ft | 108 kts | 19° |
| 2026-04-21 00:54 | 38.05919 | -78.49371 | 2167 ft | 97 kts | 18° |
| 2026-04-21 00:54 | 38.06531 | -78.49059 | 2040 ft | 93 kts | 19° |
| 2026-04-21 00:55 | 38.07116 | -78.48758 | 1918 ft | 89 kts | 19° |
| 2026-04-21 00:55 | 38.07679 | -78.48466 | 1801 ft | 86 kts | 18° |
| 2026-04-21 00:55 | 38.08229 | -78.48183 | 1690 ft | 84 kts | 18° |
| 2026-04-21 00:55 | 38.08768 | -78.47907 | 1579 ft | 83 kts | 18° |
| 2026-04-21 00:56 | 38.09120 | -78.47725 | 1509 ft | 83 kts | 18° |
| 2026-04-21 00:56 | 38.09661 | -78.47450 | 1400 ft | 86 kts | 18° |
| 2026-04-21 00:56 | 38.10224 | -78.47163 | 1286 ft | 88 kts | 19° |
| 2026-04-21 00:56 | 38.10985 | -78.46771 | 1123 ft | 90 kts | 19° |
| 2026-04-21 00:57 | 38.11567 | -78.46475 | 1008 ft | 90 kts | 19° |
| 2026-04-21 00:57 | 38.12143 | -78.46172 | 892 ft | 88 kts | 19° |
| 2026-04-21 00:57 | 38.12524 | -78.45973 | 810 ft | 87 kts | 19° |
| 2026-04-21 00:57 | 38.13074 | -78.45696 | 697 ft | 84 kts | 20° |
| 2026-04-21 00:58 | 38.13586 | -78.45435 | 639 ft | 74 kts | 19° |
| 2026-04-21 00:58 | 38.14026 | -78.45203 | 630 ft | 65 kts | 20° |
| 2026-04-21 00:58 | 38.14326 | -78.45036 | 626 ft | 24 kts | 25° |
| 2026-04-21 00:58 | 38.14379 | -78.45013 | 625 ft | 16 kts | 7° |
| 2026-04-21 00:59 | 38.14632 | -78.44896 | 633 ft | 51 kts | 24° |
| 2026-04-21 00:59 | 38.14735 | -78.44690 | 626 ft | 28 kts | 179° |
| 2026-04-21 00:59 | 38.14546 | -78.44783 | 624 ft | 30 kts | 204° |
| 2026-04-21 00:59 | 38.14356 | -78.44885 | 626 ft | 30 kts | 203° |
| 2026-04-21 01:00 | 38.14167 | -78.44984 | 628 ft | 29 kts | 198° |
| 2026-04-21 01:00 | 38.13980 | -78.45077 | 631 ft | 29 kts | 202° |
| 2026-04-21 01:00 | 38.13821 | -78.45145 | 633 ft | 9 kts | 167° |
| 2026-04-21 01:00 | 38.13736 | -78.45143 | 634 ft | 15 kts | 193° |
| 2026-04-21 01:01 | 38.13629 | -78.45171 | 635 ft | 12 kts | 153° |